sensor_id;sensor_type;location;lat;lon;timestamp;P1;durP1;ratioP1;P2;durP2;ratioP2
15402;SDS011;7799;53.478;10.170;2022-11-15T00:01:14;18.07;;;14.40;;
15402;SDS011;7799;53.478;10.170;2022-11-15T00:04:03;17.57;;;14.60;;
15402;SDS011;7799;53.478;10.170;2022-11-15T00:06:48;19.90;;;16.30;;
15402;SDS011;7799;53.478;10.170;2022-11-15T00:09:34;17.40;;;13.70;;
15402;SDS011;7799;53.478;10.170;2022-11-15T00:12:19;20.97;;;17.07;;
15402;SDS011;7799;53.478;10.170;2022-11-15T00:15:05;21.23;;;16.67;;
15402;SDS011;7799;53.478;10.170;2022-11-15T00:17:52;20.67;;;16.70;;
15402;SDS011;7799;53.478;10.170;2022-11-15T00:20:39;22.10;;;17.53;;
15402;SDS011;7799;53.478;10.170;2022-11-15T00:23:24;20.47;;;16.17;;
15402;SDS011;7799;53.478;10.170;2022-11-15T00:26:10;23.07;;;18.57;;
15402;SDS011;7799;53.478;10.170;2022-11-15T00:28:56;19.67;;;16.13;;
15402;SDS011;7799;53.478;10.170;2022-11-15T00:31:42;21.80;;;17.97;;
15402;SDS011;7799;53.478;10.170;2022-11-15T00:34:27;20.37;;;15.63;;
15402;SDS011;7799;53.478;10.170;2022-11-15T00:37:14;19.80;;;16.13;;
15402;SDS011;7799;53.478;10.170;2022-11-15T00:39:59;18.70;;;15.37;;
15402;SDS011;7799;53.478;10.170;2022-11-15T00:42:45;19.70;;;15.80;;
15402;SDS011;7799;53.478;10.170;2022-11-15T00:45:31;20.97;;;17.47;;
15402;SDS011;7799;53.478;10.170;2022-11-15T00:48:16;22.30;;;16.90;;
15402;SDS011;7799;53.478;10.170;2022-11-15T00:51:02;20.57;;;16.20;;
15402;SDS011;7799;53.478;10.170;2022-11-15T00:53:48;19.03;;;16.13;;
15402;SDS011;7799;53.478;10.170;2022-11-15T00:56:34;21.00;;;15.93;;
15402;SDS011;7799;53.478;10.170;2022-11-15T00:59:19;16.00;;;14.30;;
15402;SDS011;7799;53.478;10.170;2022-11-15T01:02:05;20.10;;;14.87;;
15402;SDS011;7799;53.478;10.170;2022-11-15T01:04:50;20.00;;;14.90;;
15402;SDS011;7799;53.478;10.170;2022-11-15T01:07:35;15.77;;;12.87;;
15402;SDS011;7799;53.478;10.170;2022-11-15T01:10:21;17.40;;;14.80;;
15402;SDS011;7799;53.478;10.170;2022-11-15T01:13:07;15.43;;;13.03;;
15402;SDS011;7799;53.478;10.170;2022-11-15T01:15:52;18.30;;;14.80;;
15402;SDS011;7799;53.478;10.170;2022-11-15T01:18:38;20.33;;;15.13;;
15402;SDS011;7799;53.478;10.170;2022-11-15T01:21:23;19.53;;;14.30;;
15402;SDS011;7799;53.478;10.170;2022-11-15T01:24:09;17.47;;;15.60;;
15402;SDS011;7799;53.478;10.170;2022-11-15T01:26:58;17.87;;;14.33;;
15402;SDS011;7799;53.478;10.170;2022-11-15T01:29:43;19.80;;;15.97;;
15402;SDS011;7799;53.478;10.170;2022-11-15T01:32:28;19.20;;;14.77;;
15402;SDS011;7799;53.478;10.170;2022-11-15T01:35:14;17.10;;;13.47;;
15402;SDS011;7799;53.478;10.170;2022-11-15T01:37:59;16.87;;;13.70;;
15402;SDS011;7799;53.478;10.170;2022-11-15T01:40:48;17.13;;;14.27;;
15402;SDS011;7799;53.478;10.170;2022-11-15T01:43:36;17.47;;;14.53;;
15402;SDS011;7799;53.478;10.170;2022-11-15T01:46:23;15.40;;;13.53;;
15402;SDS011;7799;53.478;10.170;2022-11-15T01:49:13;16.43;;;12.80;;
15402;SDS011;7799;53.478;10.170;2022-11-15T01:52:02;15.87;;;12.57;;
15402;SDS011;7799;53.478;10.170;2022-11-15T01:54:51;14.30;;;12.07;;
15402;SDS011;7799;53.478;10.170;2022-11-15T01:57:39;13.17;;;11.57;;
15402;SDS011;7799;53.478;10.170;2022-11-15T02:00:27;12.83;;;11.27;;
15402;SDS011;7799;53.478;10.170;2022-11-15T02:03:13;14.63;;;12.27;;
15402;SDS011;7799;53.478;10.170;2022-11-15T02:05:58;12.73;;;10.87;;
15402;SDS011;7799;53.478;10.170;2022-11-15T02:08:44;13.43;;;11.00;;
15402;SDS011;7799;53.478;10.170;2022-11-15T02:11:33;12.47;;;9.37;;
15402;SDS011;7799;53.478;10.170;2022-11-15T02:14:21;14.53;;;11.17;;
15402;SDS011;7799;53.478;10.170;2022-11-15T02:17:12;19.03;;;14.53;;
15402;SDS011;7799;53.478;10.170;2022-11-15T02:27:03;19.23;;;15.33;;
15402;SDS011;7799;53.478;10.170;2022-11-15T02:30:24;15.80;;;13.73;;
15402;SDS011;7799;53.478;10.170;2022-11-15T02:33:14;17.03;;;13.20;;
15402;SDS011;7799;53.478;10.170;2022-11-15T02:36:06;13.97;;;11.27;;
15402;SDS011;7799;53.478;10.170;2022-11-15T02:38:56;11.83;;;9.40;;
15402;SDS011;7799;53.478;10.170;2022-11-15T02:41:45;11.53;;;9.90;;
15402;SDS011;7799;53.478;10.170;2022-11-15T02:44:35;16.00;;;11.57;;
15402;SDS011;7799;53.478;10.170;2022-11-15T02:47:23;11.80;;;9.77;;
15402;SDS011;7799;53.478;10.170;2022-11-15T02:50:10;13.23;;;10.63;;
15402;SDS011;7799;53.478;10.170;2022-11-15T02:52:57;12.77;;;10.77;;
15402;SDS011;7799;53.478;10.170;2022-11-15T02:55:43;15.83;;;13.03;;
15402;SDS011;7799;53.478;10.170;2022-11-15T02:58:47;17.17;;;14.53;;
15402;SDS011;7799;53.478;10.170;2022-11-15T03:01:38;15.83;;;13.07;;
15402;SDS011;7799;53.478;10.170;2022-11-15T03:04:35;13.40;;;10.97;;
15402;SDS011;7799;53.478;10.170;2022-11-15T03:07:25;12.43;;;10.90;;
15402;SDS011;7799;53.478;10.170;2022-11-15T03:10:16;12.17;;;10.50;;
15402;SDS011;7799;53.478;10.170;2022-11-15T03:13:06;14.23;;;10.83;;
15402;SDS011;7799;53.478;10.170;2022-11-15T03:16:02;16.50;;;12.93;;
15402;SDS011;7799;53.478;10.170;2022-11-15T03:18:49;17.13;;;13.37;;
15402;SDS011;7799;53.478;10.170;2022-11-15T03:21:38;19.50;;;14.50;;
15402;SDS011;7799;53.478;10.170;2022-11-15T03:24:24;17.53;;;13.53;;
15402;SDS011;7799;53.478;10.170;2022-11-15T03:27:11;17.33;;;14.27;;
15402;SDS011;7799;53.478;10.170;2022-11-15T03:29:59;15.40;;;12.57;;
15402;SDS011;7799;53.478;10.170;2022-11-15T03:32:46;12.23;;;10.40;;
15402;SDS011;7799;53.478;10.170;2022-11-15T03:35:35;15.57;;;12.33;;
15402;SDS011;7799;53.478;10.170;2022-11-15T03:38:24;14.27;;;10.53;;
15402;SDS011;7799;53.478;10.170;2022-11-15T03:41:12;12.43;;;10.67;;
15402;SDS011;7799;53.478;10.170;2022-11-15T03:44:03;11.93;;;9.40;;
15402;SDS011;7799;53.478;10.170;2022-11-15T03:46:51;11.67;;;9.60;;
15402;SDS011;7799;53.478;10.170;2022-11-15T03:49:42;14.33;;;11.20;;
15402;SDS011;7799;53.478;10.170;2022-11-15T03:52:31;15.40;;;13.10;;
15402;SDS011;7799;53.478;10.170;2022-11-15T03:55:19;13.13;;;11.73;;
15402;SDS011;7799;53.478;10.170;2022-11-15T03:58:05;12.27;;;10.97;;
15402;SDS011;7799;53.478;10.170;2022-11-15T04:00:50;11.87;;;9.83;;
15402;SDS011;7799;53.478;10.170;2022-11-15T04:03:35;13.27;;;11.10;;
15402;SDS011;7799;53.478;10.170;2022-11-15T04:06:20;10.80;;;9.37;;
15402;SDS011;7799;53.478;10.170;2022-11-15T04:09:06;10.27;;;8.70;;
15402;SDS011;7799;53.478;10.170;2022-11-15T04:11:52;12.70;;;10.20;;
15402;SDS011;7799;53.478;10.170;2022-11-15T04:14:38;11.63;;;10.37;;
15402;SDS011;7799;53.478;10.170;2022-11-15T04:17:44;12.57;;;10.50;;
15402;SDS011;7799;53.478;10.170;2022-11-15T04:20:31;11.70;;;9.73;;
15402;SDS011;7799;53.478;10.170;2022-11-15T04:23:34;12.90;;;9.77;;
15402;SDS011;7799;53.478;10.170;2022-11-15T04:26:37;11.47;;;10.23;;
15402;SDS011;7799;53.478;10.170;2022-11-15T04:29:24;13.53;;;11.50;;
15402;SDS011;7799;53.478;10.170;2022-11-15T04:32:21;13.20;;;10.43;;
15402;SDS011;7799;53.478;10.170;2022-11-15T04:35:07;11.33;;;9.50;;
15402;SDS011;7799;53.478;10.170;2022-11-15T04:37:52;12.57;;;10.33;;
15402;SDS011;7799;53.478;10.170;2022-11-15T04:40:38;12.07;;;9.57;;
15402;SDS011;7799;53.478;10.170;2022-11-15T04:43:23;12.50;;;10.37;;
15402;SDS011;7799;53.478;10.170;2022-11-15T04:46:12;10.50;;;9.40;;
15402;SDS011;7799;53.478;10.170;2022-11-15T04:48:57;9.90;;;8.37;;
15402;SDS011;7799;53.478;10.170;2022-11-15T04:51:42;12.50;;;10.80;;
15402;SDS011;7799;53.478;10.170;2022-11-15T04:54:28;12.97;;;10.73;;
15402;SDS011;7799;53.478;10.170;2022-11-15T04:57:13;10.30;;;9.23;;
15402;SDS011;7799;53.478;10.170;2022-11-15T04:59:58;10.20;;;9.10;;
15402;SDS011;7799;53.478;10.170;2022-11-15T05:02:45;8.87;;;8.03;;
15402;SDS011;7799;53.478;10.170;2022-11-15T05:05:48;9.13;;;7.80;;
15402;SDS011;7799;53.478;10.170;2022-11-15T05:08:33;12.73;;;10.00;;
15402;SDS011;7799;53.478;10.170;2022-11-15T05:11:18;11.27;;;10.03;;
15402;SDS011;7799;53.478;10.170;2022-11-15T05:14:04;13.07;;;11.00;;
15402;SDS011;7799;53.478;10.170;2022-11-15T05:16:49;14.00;;;11.97;;
15402;SDS011;7799;53.478;10.170;2022-11-15T05:19:36;12.87;;;11.10;;
15402;SDS011;7799;53.478;10.170;2022-11-15T05:22:22;11.20;;;9.70;;
15402;SDS011;7799;53.478;10.170;2022-11-15T05:25:07;9.87;;;8.87;;
15402;SDS011;7799;53.478;10.170;2022-11-15T05:27:53;12.50;;;10.83;;
15402;SDS011;7799;53.478;10.170;2022-11-15T05:30:38;10.00;;;9.00;;
15402;SDS011;7799;53.478;10.170;2022-11-15T05:33:23;11.30;;;10.10;;
15402;SDS011;7799;53.478;10.170;2022-11-15T05:36:12;12.63;;;10.87;;
15402;SDS011;7799;53.478;10.170;2022-11-15T05:38:59;11.47;;;10.27;;
15402;SDS011;7799;53.478;10.170;2022-11-15T05:41:45;10.93;;;9.60;;
15402;SDS011;7799;53.478;10.170;2022-11-15T05:44:32;11.53;;;10.33;;
15402;SDS011;7799;53.478;10.170;2022-11-15T05:47:19;10.37;;;9.27;;
15402;SDS011;7799;53.478;10.170;2022-11-15T05:50:08;9.53;;;8.37;;
15402;SDS011;7799;53.478;10.170;2022-11-15T05:52:57;10.53;;;9.30;;
15402;SDS011;7799;53.478;10.170;2022-11-15T05:55:42;10.37;;;9.27;;
15402;SDS011;7799;53.478;10.170;2022-11-15T05:58:28;12.00;;;10.43;;
15402;SDS011;7799;53.478;10.170;2022-11-15T06:01:12;11.27;;;10.03;;
15402;SDS011;7799;53.478;10.170;2022-11-15T06:03:58;14.60;;;11.03;;
15402;SDS011;7799;53.478;10.170;2022-11-15T06:06:43;12.57;;;11.27;;
15402;SDS011;7799;53.478;10.170;2022-11-15T06:09:29;12.00;;;10.70;;
15402;SDS011;7799;53.478;10.170;2022-11-15T06:12:14;11.27;;;10.07;;
15402;SDS011;7799;53.478;10.170;2022-11-15T06:15:00;12.47;;;10.27;;
15402;SDS011;7799;53.478;10.170;2022-11-15T06:17:45;12.00;;;10.17;;
15402;SDS011;7799;53.478;10.170;2022-11-15T06:20:30;11.97;;;10.70;;
15402;SDS011;7799;53.478;10.170;2022-11-15T06:23:15;12.67;;;10.87;;
15402;SDS011;7799;53.478;10.170;2022-11-15T06:26:03;10.13;;;9.13;;
15402;SDS011;7799;53.478;10.170;2022-11-15T06:28:48;14.67;;;12.40;;
15402;SDS011;7799;53.478;10.170;2022-11-15T06:31:34;11.40;;;10.20;;
15402;SDS011;7799;53.478;10.170;2022-11-15T06:34:19;13.57;;;11.73;;
15402;SDS011;7799;53.478;10.170;2022-11-15T06:37:04;15.33;;;12.97;;
15402;SDS011;7799;53.478;10.170;2022-11-15T06:39:49;14.77;;;12.63;;
15402;SDS011;7799;53.478;10.170;2022-11-15T06:42:36;13.90;;;12.10;;
15402;SDS011;7799;53.478;10.170;2022-11-15T06:45:22;16.30;;;12.70;;
15402;SDS011;7799;53.478;10.170;2022-11-15T06:48:07;14.90;;;12.50;;
15402;SDS011;7799;53.478;10.170;2022-11-15T06:50:52;13.27;;;11.87;;
15402;SDS011;7799;53.478;10.170;2022-11-15T06:53:40;13.93;;;11.77;;
15402;SDS011;7799;53.478;10.170;2022-11-15T06:56:26;13.23;;;11.50;;
15402;SDS011;7799;53.478;10.170;2022-11-15T06:59:12;12.87;;;11.40;;
15402;SDS011;7799;53.478;10.170;2022-11-15T07:01:57;14.33;;;11.83;;
15402;SDS011;7799;53.478;10.170;2022-11-15T07:04:42;14.03;;;11.87;;
15402;SDS011;7799;53.478;10.170;2022-11-15T07:07:27;14.00;;;11.80;;
15402;SDS011;7799;53.478;10.170;2022-11-15T07:10:12;14.13;;;12.30;;
15402;SDS011;7799;53.478;10.170;2022-11-15T07:12:57;12.83;;;11.07;;
15402;SDS011;7799;53.478;10.170;2022-11-15T07:15:44;14.80;;;11.50;;
15402;SDS011;7799;53.478;10.170;2022-11-15T07:18:29;11.70;;;10.23;;
15402;SDS011;7799;53.478;10.170;2022-11-15T07:21:14;11.63;;;10.23;;
15402;SDS011;7799;53.478;10.170;2022-11-15T07:23:59;12.60;;;10.90;;
15402;SDS011;7799;53.478;10.170;2022-11-15T07:26:45;12.57;;;11.27;;
15402;SDS011;7799;53.478;10.170;2022-11-15T07:29:29;13.20;;;11.20;;
15402;SDS011;7799;53.478;10.170;2022-11-15T07:32:16;11.20;;;10.00;;
15402;SDS011;7799;53.478;10.170;2022-11-15T07:35:01;12.30;;;10.60;;
15402;SDS011;7799;53.478;10.170;2022-11-15T07:37:52;13.20;;;11.20;;
15402;SDS011;7799;53.478;10.170;2022-11-15T07:40:38;11.67;;;10.37;;
15402;SDS011;7799;53.478;10.170;2022-11-15T07:43:23;11.43;;;9.87;;
15402;SDS011;7799;53.478;10.170;2022-11-15T07:46:09;11.60;;;10.40;;
15402;SDS011;7799;53.478;10.170;2022-11-15T07:48:55;11.23;;;9.90;;
15402;SDS011;7799;53.478;10.170;2022-11-15T07:51:41;11.90;;;10.03;;
15402;SDS011;7799;53.478;10.170;2022-11-15T07:54:26;10.70;;;9.60;;
15402;SDS011;7799;53.478;10.170;2022-11-15T07:57:10;11.63;;;9.67;;
15402;SDS011;7799;53.478;10.170;2022-11-15T07:59:55;12.40;;;10.57;;
15402;SDS011;7799;53.478;10.170;2022-11-15T08:02:41;13.20;;;10.33;;
15402;SDS011;7799;53.478;10.170;2022-11-15T08:05:28;12.90;;;11.33;;
15402;SDS011;7799;53.478;10.170;2022-11-15T08:08:13;13.07;;;11.13;;
15402;SDS011;7799;53.478;10.170;2022-11-15T08:10:58;11.43;;;10.30;;
15402;SDS011;7799;53.478;10.170;2022-11-15T08:13:43;11.77;;;10.53;;
15402;SDS011;7799;53.478;10.170;2022-11-15T08:16:28;13.80;;;12.30;;
15402;SDS011;7799;53.478;10.170;2022-11-15T08:19:14;14.97;;;12.07;;
15402;SDS011;7799;53.478;10.170;2022-11-15T08:22:00;13.10;;;11.60;;
15402;SDS011;7799;53.478;10.170;2022-11-15T08:24:46;12.30;;;10.53;;
15402;SDS011;7799;53.478;10.170;2022-11-15T08:27:31;14.53;;;11.33;;
15402;SDS011;7799;53.478;10.170;2022-11-15T08:30:16;13.37;;;11.40;;
15402;SDS011;7799;53.478;10.170;2022-11-15T08:33:01;12.57;;;11.23;;
15402;SDS011;7799;53.478;10.170;2022-11-15T08:35:47;11.20;;;10.00;;
15402;SDS011;7799;53.478;10.170;2022-11-15T08:38:33;12.57;;;11.30;;
15402;SDS011;7799;53.478;10.170;2022-11-15T08:41:26;14.90;;;12.47;;
15402;SDS011;7799;53.478;10.170;2022-11-15T08:44:13;14.40;;;11.83;;
15402;SDS011;7799;53.478;10.170;2022-11-15T08:46:58;13.07;;;11.70;;
15402;SDS011;7799;53.478;10.170;2022-11-15T08:49:43;13.73;;;12.00;;
15402;SDS011;7799;53.478;10.170;2022-11-15T08:52:28;13.30;;;11.77;;
15402;SDS011;7799;53.478;10.170;2022-11-15T08:55:14;13.07;;;11.70;;
15402;SDS011;7799;53.478;10.170;2022-11-15T08:57:59;13.60;;;11.70;;
15402;SDS011;7799;53.478;10.170;2022-11-15T09:00:44;12.77;;;10.73;;
15402;SDS011;7799;53.478;10.170;2022-11-15T09:03:30;11.63;;;10.47;;
15402;SDS011;7799;53.478;10.170;2022-11-15T09:06:15;12.93;;;10.50;;
15402;SDS011;7799;53.478;10.170;2022-11-15T09:09:00;11.30;;;10.10;;
15402;SDS011;7799;53.478;10.170;2022-11-15T09:11:47;11.87;;;10.67;;
15402;SDS011;7799;53.478;10.170;2022-11-15T09:14:34;11.87;;;10.40;;
15402;SDS011;7799;53.478;10.170;2022-11-15T09:17:19;10.63;;;9.63;;
15402;SDS011;7799;53.478;10.170;2022-11-15T09:20:04;11.73;;;10.33;;
15402;SDS011;7799;53.478;10.170;2022-11-15T09:22:50;10.87;;;9.87;;
15402;SDS011;7799;53.478;10.170;2022-11-15T09:25:35;10.07;;;9.07;;
15402;SDS011;7799;53.478;10.170;2022-11-15T09:28:21;10.27;;;9.00;;
15402;SDS011;7799;53.478;10.170;2022-11-15T09:31:07;10.20;;;9.20;;
15402;SDS011;7799;53.478;10.170;2022-11-15T09:33:52;10.77;;;9.67;;
15402;SDS011;7799;53.478;10.170;2022-11-15T09:36:38;12.00;;;10.70;;
15402;SDS011;7799;53.478;10.170;2022-11-15T09:39:23;12.03;;;10.80;;
15402;SDS011;7799;53.478;10.170;2022-11-15T09:42:12;11.57;;;10.37;;
15402;SDS011;7799;53.478;10.170;2022-11-15T09:45:13;10.23;;;9.23;;
15402;SDS011;7799;53.478;10.170;2022-11-15T09:48:13;11.40;;;10.00;;
15402;SDS011;7799;53.478;10.170;2022-11-15T09:51:08;10.97;;;9.67;;
15402;SDS011;7799;53.478;10.170;2022-11-15T09:53:41;9.63;;;8.63;;
15402;SDS011;7799;53.478;10.170;2022-11-15T09:56:13;10.20;;;9.20;;
15402;SDS011;7799;53.478;10.170;2022-11-15T09:58:44;10.33;;;9.33;;
15402;SDS011;7799;53.478;10.170;2022-11-15T10:01:21;9.80;;;8.80;;
15402;SDS011;7799;53.478;10.170;2022-11-15T10:03:59;9.83;;;8.83;;
15402;SDS011;7799;53.478;10.170;2022-11-15T10:06:26;10.53;;;8.87;;
15402;SDS011;7799;53.478;10.170;2022-11-15T10:08:55;9.60;;;8.60;;
15402;SDS011;7799;53.478;10.170;2022-11-15T10:11:24;9.83;;;8.80;;
15402;SDS011;7799;53.478;10.170;2022-11-15T10:13:52;9.47;;;8.57;;
15402;SDS011;7799;53.478;10.170;2022-11-15T10:16:29;10.00;;;9.00;;
15402;SDS011;7799;53.478;10.170;2022-11-15T10:19:04;9.23;;;8.33;;
15402;SDS011;7799;53.478;10.170;2022-11-15T10:21:40;9.33;;;8.37;;
15402;SDS011;7799;53.478;10.170;2022-11-15T10:24:15;12.10;;;10.90;;
15402;SDS011;7799;53.478;10.170;2022-11-15T10:26:45;11.40;;;10.30;;
15402;SDS011;7799;53.478;10.170;2022-11-15T10:29:17;10.50;;;9.50;;
15402;SDS011;7799;53.478;10.170;2022-11-15T10:31:46;10.30;;;9.20;;
15402;SDS011;7799;53.478;10.170;2022-11-15T10:34:13;9.90;;;8.90;;
15402;SDS011;7799;53.478;10.170;2022-11-15T10:36:43;8.77;;;7.87;;
15402;SDS011;7799;53.478;10.170;2022-11-15T10:39:11;7.60;;;6.90;;
15402;SDS011;7799;53.478;10.170;2022-11-15T10:41:39;6.80;;;6.20;;
15402;SDS011;7799;53.478;10.170;2022-11-15T10:44:09;6.77;;;6.07;;
15402;SDS011;7799;53.478;10.170;2022-11-15T10:47:04;9.53;;;8.50;;
15402;SDS011;7799;53.478;10.170;2022-11-15T10:49:55;10.00;;;8.97;;
15402;SDS011;7799;53.478;10.170;2022-11-15T10:52:27;9.83;;;8.73;;
15402;SDS011;7799;53.478;10.170;2022-11-15T10:54:55;10.47;;;9.37;;
15402;SDS011;7799;53.478;10.170;2022-11-15T10:57:24;9.07;;;8.17;;
15402;SDS011;7799;53.478;10.170;2022-11-15T10:59:53;8.90;;;8.00;;
15402;SDS011;7799;53.478;10.170;2022-11-15T11:02:30;9.70;;;8.37;;
15402;SDS011;7799;53.478;10.170;2022-11-15T11:04:58;9.10;;;8.20;;
15402;SDS011;7799;53.478;10.170;2022-11-15T11:07:26;8.23;;;7.43;;
15402;SDS011;7799;53.478;10.170;2022-11-15T11:09:58;9.07;;;8.13;;
15402;SDS011;7799;53.478;10.170;2022-11-15T11:12:27;9.10;;;8.27;;
15402;SDS011;7799;53.478;10.170;2022-11-15T11:14:57;8.03;;;7.23;;
15402;SDS011;7799;53.478;10.170;2022-11-15T11:17:26;8.57;;;7.77;;
15402;SDS011;7799;53.478;10.170;2022-11-15T11:20:00;8.10;;;7.40;;
15402;SDS011;7799;53.478;10.170;2022-11-15T11:22:30;8.67;;;7.77;;
15402;SDS011;7799;53.478;10.170;2022-11-15T11:25:04;8.30;;;7.53;;
15402;SDS011;7799;53.478;10.170;2022-11-15T11:27:40;8.10;;;7.30;;
15402;SDS011;7799;53.478;10.170;2022-11-15T11:30:12;7.33;;;6.63;;
15402;SDS011;7799;53.478;10.170;2022-11-15T11:35:38;8.20;;;7.40;;
15402;SDS011;7799;53.478;10.170;2022-11-15T11:38:17;8.87;;;7.97;;
15402;SDS011;7799;53.478;10.170;2022-11-15T11:40:53;7.67;;;6.80;;
15402;SDS011;7799;53.478;10.170;2022-11-15T11:43:26;8.50;;;7.03;;
15402;SDS011;7799;53.478;10.170;2022-11-15T11:46:01;7.30;;;6.60;;
15402;SDS011;7799;53.478;10.170;2022-11-15T11:48:40;8.07;;;7.30;;
15402;SDS011;7799;53.478;10.170;2022-11-15T11:51:10;7.90;;;7.10;;
15402;SDS011;7799;53.478;10.170;2022-11-15T11:53:42;7.93;;;6.80;;
15402;SDS011;7799;53.478;10.170;2022-11-15T11:56:16;7.43;;;6.73;;
15402;SDS011;7799;53.478;10.170;2022-11-15T11:58:48;8.17;;;7.10;;
15402;SDS011;7799;53.478;10.170;2022-11-15T12:01:18;7.57;;;6.87;;
15402;SDS011;7799;53.478;10.170;2022-11-15T12:03:50;7.83;;;6.50;;
15402;SDS011;7799;53.478;10.170;2022-11-15T12:06:23;8.20;;;7.40;;
15402;SDS011;7799;53.478;10.170;2022-11-15T12:08:57;8.30;;;7.50;;
15402;SDS011;7799;53.478;10.170;2022-11-15T12:11:28;7.67;;;6.97;;
15402;SDS011;7799;53.478;10.170;2022-11-15T12:13:57;7.27;;;6.57;;
15402;SDS011;7799;53.478;10.170;2022-11-15T12:16:27;7.23;;;6.40;;
15402;SDS011;7799;53.478;10.170;2022-11-15T12:18:56;7.00;;;6.40;;
15402;SDS011;7799;53.478;10.170;2022-11-15T12:21:27;6.37;;;5.77;;
15402;SDS011;7799;53.478;10.170;2022-11-15T12:24:01;8.00;;;7.20;;
15402;SDS011;7799;53.478;10.170;2022-11-15T12:26:31;7.20;;;6.50;;
15402;SDS011;7799;53.478;10.170;2022-11-15T12:29:01;7.27;;;6.43;;
15402;SDS011;7799;53.478;10.170;2022-11-15T12:31:32;7.40;;;6.30;;
15402;SDS011;7799;53.478;10.170;2022-11-15T12:34:12;7.37;;;6.67;;
15402;SDS011;7799;53.478;10.170;2022-11-15T12:36:42;7.20;;;6.60;;
15402;SDS011;7799;53.478;10.170;2022-11-15T12:39:09;7.50;;;6.70;;
15402;SDS011;7799;53.478;10.170;2022-11-15T12:41:37;7.47;;;6.67;;
15402;SDS011;7799;53.478;10.170;2022-11-15T12:44:05;7.50;;;6.70;;
15402;SDS011;7799;53.478;10.170;2022-11-15T12:52:15;7.13;;;6.43;;
15402;SDS011;7799;53.478;10.170;2022-11-15T12:57:44;7.17;;;6.47;;
15402;SDS011;7799;53.478;10.170;2022-11-15T13:03:18;6.97;;;6.33;;
15402;SDS011;7799;53.478;10.170;2022-11-15T13:06:08;7.30;;;6.60;;
15402;SDS011;7799;53.478;10.170;2022-11-15T13:08:37;7.30;;;6.70;;
15402;SDS011;7799;53.478;10.170;2022-11-15T13:20:00;6.20;;;5.60;;
15402;SDS011;7799;53.478;10.170;2022-11-15T13:22:46;6.93;;;6.33;;
15402;SDS011;7799;53.478;10.170;2022-11-15T13:25:18;8.00;;;7.30;;
15402;SDS011;7799;53.478;10.170;2022-11-15T13:27:50;6.60;;;6.00;;
15402;SDS011;7799;53.478;10.170;2022-11-15T13:30:19;5.87;;;5.37;;
15402;SDS011;7799;53.478;10.170;2022-11-15T13:32:47;6.03;;;5.43;;
15402;SDS011;7799;53.478;10.170;2022-11-15T13:35:18;5.97;;;5.17;;
15402;SDS011;7799;53.478;10.170;2022-11-15T13:37:48;5.60;;;5.10;;
15402;SDS011;7799;53.478;10.170;2022-11-15T13:40:18;7.77;;;6.13;;
15402;SDS011;7799;53.478;10.170;2022-11-15T13:42:47;6.87;;;6.17;;
15402;SDS011;7799;53.478;10.170;2022-11-15T13:45:14;6.20;;;5.60;;
15402;SDS011;7799;53.478;10.170;2022-11-15T13:47:42;7.80;;;5.90;;
15402;SDS011;7799;53.478;10.170;2022-11-15T13:50:10;6.40;;;5.80;;
15402;SDS011;7799;53.478;10.170;2022-11-15T13:52:37;6.93;;;6.30;;
15402;SDS011;7799;53.478;10.170;2022-11-15T13:55:10;6.50;;;5.90;;
15402;SDS011;7799;53.478;10.170;2022-11-15T13:57:40;6.57;;;6.00;;
15402;SDS011;7799;53.478;10.170;2022-11-15T14:00:30;7.17;;;6.37;;
15402;SDS011;7799;53.478;10.170;2022-11-15T14:03:05;6.80;;;6.20;;
15402;SDS011;7799;53.478;10.170;2022-11-15T14:05:33;5.77;;;5.27;;
15402;SDS011;7799;53.478;10.170;2022-11-15T14:08:01;6.60;;;6.00;;
15402;SDS011;7799;53.478;10.170;2022-11-15T14:10:31;6.27;;;5.67;;
15402;SDS011;7799;53.478;10.170;2022-11-15T14:12:59;6.53;;;5.93;;
15402;SDS011;7799;53.478;10.170;2022-11-15T14:15:27;6.27;;;5.67;;
15402;SDS011;7799;53.478;10.170;2022-11-15T14:17:55;6.50;;;6.00;;
15402;SDS011;7799;53.478;10.170;2022-11-15T14:20:29;7.03;;;6.33;;
15402;SDS011;7799;53.478;10.170;2022-11-15T14:22:58;6.83;;;6.13;;
15402;SDS011;7799;53.478;10.170;2022-11-15T14:25:26;6.37;;;5.77;;
15402;SDS011;7799;53.478;10.170;2022-11-15T14:28:12;7.13;;;6.00;;
15402;SDS011;7799;53.478;10.170;2022-11-15T14:30:41;6.80;;;6.13;;
15402;SDS011;7799;53.478;10.170;2022-11-15T14:33:17;6.90;;;6.03;;
15402;SDS011;7799;53.478;10.170;2022-11-15T14:35:49;7.10;;;6.50;;
15402;SDS011;7799;53.478;10.170;2022-11-15T14:38:15;6.73;;;6.00;;
15402;SDS011;7799;53.478;10.170;2022-11-15T14:40:42;6.67;;;5.80;;
15402;SDS011;7799;53.478;10.170;2022-11-15T14:43:11;6.50;;;5.90;;
15402;SDS011;7799;53.478;10.170;2022-11-15T14:45:38;6.33;;;5.73;;
15402;SDS011;7799;53.478;10.170;2022-11-15T14:48:04;6.70;;;6.10;;
15402;SDS011;7799;53.478;10.170;2022-11-15T14:50:32;7.03;;;6.43;;
15402;SDS011;7799;53.478;10.170;2022-11-15T14:52:59;6.97;;;6.27;;
15402;SDS011;7799;53.478;10.170;2022-11-15T14:55:27;5.97;;;5.37;;
15402;SDS011;7799;53.478;10.170;2022-11-15T14:57:56;7.40;;;6.10;;
15402;SDS011;7799;53.478;10.170;2022-11-15T15:00:25;6.70;;;6.10;;
15402;SDS011;7799;53.478;10.170;2022-11-15T15:02:52;5.87;;;5.37;;
15402;SDS011;7799;53.478;10.170;2022-11-15T15:05:24;5.23;;;4.73;;
15402;SDS011;7799;53.478;10.170;2022-11-15T15:07:54;5.07;;;4.63;;
15402;SDS011;7799;53.478;10.170;2022-11-15T15:10:21;4.80;;;4.40;;
15402;SDS011;7799;53.478;10.170;2022-11-15T15:12:48;5.00;;;4.57;;
15402;SDS011;7799;53.478;10.170;2022-11-15T15:15:15;5.80;;;5.20;;
15402;SDS011;7799;53.478;10.170;2022-11-15T15:17:44;5.87;;;5.37;;
15402;SDS011;7799;53.478;10.170;2022-11-15T15:20:11;5.53;;;5.03;;
15402;SDS011;7799;53.478;10.170;2022-11-15T15:22:38;5.00;;;4.60;;
15402;SDS011;7799;53.478;10.170;2022-11-15T15:25:15;5.20;;;4.70;;
15402;SDS011;7799;53.478;10.170;2022-11-15T15:27:46;6.90;;;6.30;;
15402;SDS011;7799;53.478;10.170;2022-11-15T15:30:13;5.93;;;5.13;;
15402;SDS011;7799;53.478;10.170;2022-11-15T15:32:40;6.10;;;5.60;;
15402;SDS011;7799;53.478;10.170;2022-11-15T15:35:10;6.00;;;5.40;;
15402;SDS011;7799;53.478;10.170;2022-11-15T15:37:38;5.83;;;5.23;;
15402;SDS011;7799;53.478;10.170;2022-11-15T15:40:08;5.37;;;4.87;;
15402;SDS011;7799;53.478;10.170;2022-11-15T15:42:38;4.60;;;4.20;;
15402;SDS011;7799;53.478;10.170;2022-11-15T15:45:05;3.90;;;3.60;;
15402;SDS011;7799;53.478;10.170;2022-11-15T15:47:32;3.60;;;3.30;;
15402;SDS011;7799;53.478;10.170;2022-11-15T15:49:59;4.40;;;4.00;;
15402;SDS011;7799;53.478;10.170;2022-11-15T15:52:27;7.77;;;5.87;;
15402;SDS011;7799;53.478;10.170;2022-11-15T15:54:54;5.67;;;4.80;;
15402;SDS011;7799;53.478;10.170;2022-11-15T15:57:20;6.27;;;5.67;;
15402;SDS011;7799;53.478;10.170;2022-11-15T15:59:47;6.13;;;5.43;;
15402;SDS011;7799;53.478;10.170;2022-11-15T16:02:14;6.17;;;5.53;;
15402;SDS011;7799;53.478;10.170;2022-11-15T16:04:40;6.43;;;5.83;;
15402;SDS011;7799;53.478;10.170;2022-11-15T16:07:07;6.23;;;5.63;;
15402;SDS011;7799;53.478;10.170;2022-11-15T16:09:43;6.33;;;5.33;;
15402;SDS011;7799;53.478;10.170;2022-11-15T16:12:28;6.37;;;4.80;;
15402;SDS011;7799;53.478;10.170;2022-11-15T16:14:56;5.50;;;5.00;;
15402;SDS011;7799;53.478;10.170;2022-11-15T16:17:23;5.63;;;5.13;;
15402;SDS011;7799;53.478;10.170;2022-11-15T16:19:51;4.90;;;4.50;;
15402;SDS011;7799;53.478;10.170;2022-11-15T16:22:18;5.17;;;4.63;;